createdAt,value
2019-03-18T00:00:58.429Z,100591.73
2019-03-18T00:03:27.323Z,100583.23
2019-03-18T00:05:55.928Z,100584.19
2019-03-18T00:08:24.644Z,100601.70
2019-03-18T00:10:53.364Z,100612.77
2019-03-18T00:13:21.971Z,100621.62
2019-03-18T00:15:50.622Z,100618.63
2019-03-18T00:18:19.359Z,100627.17
2019-03-18T00:20:47.955Z,100627.17
2019-03-18T00:23:16.666Z,100624.07
2019-03-18T00:25:45.311Z,100631.81
2019-03-18T00:28:13.945Z,100627.18
2019-03-18T00:30:42.805Z,100635.83
2019-03-18T00:33:11.425Z,100631.50
2019-03-18T00:35:40.033Z,100640.08
2019-03-18T00:38:08.710Z,100639.83
2019-03-18T00:40:37.399Z,100644.36
2019-03-18T00:43:06.098Z,100657.64
2019-03-18T00:45:34.696Z,100656.30
2019-03-18T00:48:03.356Z,100651.08
2019-03-18T00:50:31.969Z,100648.88
2019-03-18T00:53:00.804Z,100672.40
2019-03-18T00:55:29.413Z,100668.78
2019-03-18T00:57:58.055Z,100673.08
2019-03-18T01:00:26.820Z,100665.37
2019-03-18T01:02:55.342Z,100666.39
2019-03-18T01:05:23.977Z,100671.74
2019-03-18T01:07:52.639Z,100671.55
2019-03-18T01:10:21.357Z,100675.95
2019-03-18T01:12:50.090Z,100689.75
2019-03-18T01:15:27.872Z,100685.34
2019-03-18T01:17:49.093Z,100696.59
2019-03-18T01:20:18.621Z,100699.34
2019-03-18T01:22:47.354Z,100699.26
2019-03-18T01:25:15.973Z,100701.11
2019-03-18T01:27:44.801Z,100695.25
2019-03-18T01:30:15.500Z,100695.91
2019-03-18T01:32:44.137Z,100697.36
2019-03-18T01:35:12.877Z,100701.14
2019-03-18T01:37:41.545Z,100691.27
2019-03-18T01:40:12.504Z,100692.80
2019-03-18T01:42:41.338Z,100690.92
2019-03-18T01:45:11.594Z,100697.24
2019-03-18T01:47:40.332Z,100698.66
2019-03-18T01:50:16.216Z,100694.45
2019-03-18T01:52:44.876Z,100693.97
2019-03-18T01:55:13.709Z,100696.55
2019-03-18T01:57:42.425Z,100699.94
2019-03-18T02:00:13.623Z,100705.78
2019-03-18T02:02:42.351Z,100706.69
2019-03-18T02:05:11.435Z,100710.67
2019-03-18T02:07:40.168Z,100701.08
2019-03-18T02:10:11.631Z,100708.48
2019-03-18T02:12:40.344Z,100711.16
2019-03-18T02:15:11.987Z,100720.28
2019-03-18T02:17:40.707Z,100717.30
2019-03-18T02:20:15.129Z,100717.72
2019-03-18T02:22:44.066Z,100722.48
2019-03-18T02:25:12.902Z,100725.58
2019-03-18T02:27:41.626Z,100725.89
2019-03-18T02:30:13.007Z,100727.74
2019-03-18T02:32:41.785Z,100729.08
2019-03-18T02:35:10.492Z,100732.16
2019-03-18T02:37:39.172Z,100732.66
2019-03-18T02:40:10.823Z,100735.34
2019-03-18T02:42:39.594Z,100736.98
2019-03-18T02:45:11.766Z,100734.91
2019-03-18T02:47:40.613Z,100738.41
2019-03-18T02:50:11.046Z,100741.69
2019-03-18T02:52:39.859Z,100735.82
2019-03-18T02:55:09.692Z,100733.20
2019-03-18T02:57:38.338Z,100743.47
2019-03-18T03:00:13.024Z,100754.77
2019-03-18T03:02:41.962Z,100772.87
2019-03-18T03:05:12.997Z,100762.25
2019-03-18T03:07:41.697Z,100770.08
2019-03-18T03:10:13.160Z,100777.06
2019-03-18T03:12:41.889Z,100772.36
2019-03-18T03:15:13.115Z,100766.53
2019-03-18T03:17:41.814Z,100757.88
2019-03-18T03:20:11.986Z,100761.72
2019-03-18T03:22:40.808Z,100760.83
2019-03-18T03:25:11.136Z,100761.37
2019-03-18T03:27:39.756Z,100766.94
2019-03-18T03:30:14.291Z,100770.16
2019-03-18T03:32:43.096Z,100788.69
2019-03-18T03:35:11.895Z,100791.70
2019-03-18T03:37:40.649Z,100786.36
2019-03-18T03:40:11.260Z,100791.71
2019-03-18T03:42:39.945Z,100787.89
2019-03-18T03:45:11.347Z,100786.47
2019-03-18T03:47:40.105Z,100796.75
2019-03-18T03:50:11.295Z,100808.38
2019-03-18T03:52:40.064Z,100811.46
2019-03-18T03:55:13.414Z,100814.68
2019-03-18T03:57:42.129Z,100820.53
2019-03-18T04:00:16.980Z,100822.80
2019-03-18T04:02:45.706Z,100820.31
2019-03-18T04:05:14.376Z,100818.14
2019-03-18T04:07:43.227Z,100828.00
2019-03-18T04:10:14.451Z,100829.24
2019-03-18T04:12:43.131Z,100826.29
2019-03-18T04:15:14.541Z,100830.81
2019-03-18T04:17:43.192Z,100840.99
2019-03-18T04:20:14.579Z,100847.16
2019-03-18T04:22:43.214Z,100845.92
2019-03-18T04:25:12.064Z,100848.59
2019-03-18T04:27:40.688Z,100849.94
2019-03-18T04:30:12.324Z,100853.21
2019-03-18T04:32:40.968Z,100857.95
2019-03-18T04:35:09.617Z,100859.89
2019-03-18T04:37:38.269Z,100866.98
2019-03-18T04:40:09.722Z,100861.03
2019-03-18T04:42:38.418Z,100867.30
2019-03-18T04:45:09.727Z,100877.03
2019-03-18T04:47:38.518Z,100880.63
2019-03-18T04:50:12.860Z,100892.56
2019-03-18T04:52:44.018Z,100894.09
2019-03-18T04:55:12.856Z,100895.23
2019-03-18T04:57:41.527Z,100902.73
2019-03-18T05:00:13.027Z,100905.18
2019-03-18T05:02:41.617Z,100900.84
2019-03-18T05:05:10.417Z,100901.86
2019-03-18T05:07:39.086Z,100902.69
2019-03-18T05:10:09.866Z,100907.44
2019-03-18T05:12:38.619Z,100907.63
2019-03-18T05:15:09.908Z,100916.47
2019-03-18T05:17:38.689Z,100905.58
2019-03-18T05:20:09.949Z,100911.45
2019-03-18T05:22:38.635Z,100910.11
2019-03-18T05:25:09.992Z,100908.36
2019-03-18T05:27:38.614Z,100920.50
2019-03-18T05:30:10.193Z,100923.08
2019-03-18T05:32:38.873Z,100933.59
2019-03-18T05:35:07.582Z,100930.09
2019-03-18T05:37:36.208Z,100932.45
2019-03-18T05:40:07.938Z,100945.12
2019-03-18T05:42:36.707Z,100941.52
2019-03-18T05:45:09.266Z,100954.66
2019-03-18T05:47:39.673Z,100959.91
2019-03-18T05:50:12.021Z,100957.77
2019-03-18T05:52:40.722Z,100971.42
2019-03-18T05:55:11.312Z,100968.87
2019-03-18T05:57:40.015Z,100975.66
2019-03-18T06:00:14.388Z,100985.94
2019-03-18T06:02:43.005Z,100985.95
2019-03-18T06:05:11.727Z,100988.91
2019-03-18T06:07:40.457Z,100960.13
2019-03-18T06:10:11.473Z,100987.90
2019-03-18T06:12:40.502Z,100994.91
2019-03-18T06:15:11.350Z,101003.22
2019-03-18T06:17:51.719Z,101010.00
2019-03-18T06:20:12.640Z,101019.59
2019-03-18T06:22:41.417Z,101013.83
2019-03-18T06:25:10.154Z,101016.70
2019-03-18T06:27:38.968Z,101022.14
2019-03-18T06:30:12.684Z,101024.50
2019-03-18T06:32:41.451Z,101032.63
2019-03-18T06:35:11.337Z,101036.02
2019-03-18T06:37:39.979Z,101042.39
2019-03-18T06:40:13.633Z,101045.13
2019-03-18T06:42:42.373Z,101045.57
2019-03-18T06:45:13.630Z,101049.23
2019-03-18T06:47:42.317Z,101051.19
2019-03-18T06:50:14.464Z,101052.55
2019-03-18T06:52:43.196Z,101050.78
2019-03-18T06:55:11.990Z,101055.49
2019-03-18T06:57:40.646Z,101056.74
2019-03-18T07:00:14.620Z,101058.00
2019-03-18T07:02:43.287Z,101054.53
2019-03-18T07:05:12.085Z,101069.12
2019-03-18T07:07:40.646Z,101064.27
2019-03-18T07:10:12.196Z,101073.41
2019-03-18T07:12:40.877Z,101079.68
2019-03-18T07:15:11.643Z,101079.89
2019-03-18T07:17:40.291Z,101080.94
2019-03-18T07:20:11.837Z,101088.33
2019-03-18T07:22:40.529Z,101091.80
2019-03-18T07:25:09.229Z,101100.33
2019-03-18T07:27:37.883Z,101099.68
2019-03-18T07:30:09.736Z,101100.61
2019-03-18T07:32:38.400Z,101114.59
2019-03-18T07:35:07.558Z,101086.72
2019-03-18T07:37:36.255Z,101108.77
2019-03-18T07:40:11.115Z,101144.70
2019-03-18T07:42:38.472Z,101123.06
2019-03-18T07:45:09.907Z,101135.67
2019-03-18T07:47:38.593Z,101142.41
2019-03-18T07:50:12.919Z,101140.22
2019-03-18T07:52:41.572Z,101151.31
2019-03-18T07:55:11.140Z,101138.25
2019-03-18T07:57:39.835Z,101156.84
2019-03-18T08:00:11.422Z,101156.16
2019-03-18T08:02:40.057Z,101161.70
2019-03-18T08:05:10.031Z,101156.67
2019-03-18T08:07:38.878Z,101166.50
2019-03-18T08:10:14.159Z,101172.33
2019-03-18T08:12:42.787Z,101170.83
2019-03-18T08:15:12.208Z,101167.66
2019-03-18T08:17:40.911Z,101177.03
2019-03-18T08:20:11.306Z,101190.36
2019-03-18T08:22:39.991Z,101193.90
2019-03-18T08:25:11.086Z,101194.86
2019-03-18T08:27:39.731Z,101190.92
2019-03-18T08:30:16.214Z,101208.31
2019-03-18T08:32:44.907Z,101199.23
2019-03-18T08:35:13.730Z,101204.45
2019-03-18T08:37:42.364Z,101210.52
2019-03-18T08:40:13.897Z,101212.59
2019-03-18T08:42:42.637Z,101205.44
2019-03-18T08:45:13.433Z,101199.60
2019-03-18T08:47:41.987Z,101213.41
2019-03-18T08:50:13.317Z,101216.77
2019-03-18T08:52:42.004Z,101224.47
2019-03-18T08:55:12.141Z,101219.28
2019-03-18T08:57:40.905Z,101230.06
2019-03-18T09:00:14.487Z,101227.02
2019-03-18T09:02:43.127Z,101231.56
2019-03-18T09:05:13.410Z,101231.30
2019-03-18T09:07:42.120Z,101234.27
2019-03-18T09:10:13.641Z,101225.33
2019-03-18T09:12:42.296Z,101235.58
2019-03-18T09:15:12.404Z,101256.75
2019-03-18T09:17:41.071Z,101242.59
2019-03-18T09:20:15.594Z,101250.48
2019-03-18T09:22:44.720Z,101253.13
2019-03-18T09:25:14.377Z,101264.25
2019-03-18T09:27:43.116Z,101265.23
2019-03-18T09:30:19.839Z,101263.61
2019-03-18T09:32:48.577Z,101264.94
2019-03-18T09:35:17.218Z,101280.33
2019-03-18T09:37:45.939Z,101285.70
2019-03-18T09:40:15.637Z,101307.05
2019-03-18T09:42:44.401Z,101353.77
2019-03-18T09:45:17.755Z,101354.84
2019-03-18T09:47:46.328Z,101357.06
2019-03-18T09:50:15.758Z,101344.06
2019-03-18T09:52:44.473Z,101343.31
2019-03-18T09:55:13.235Z,101345.77
2019-03-18T09:57:41.850Z,101348.73
2019-03-18T10:00:15.780Z,101355.42
2019-03-18T10:02:44.580Z,101352.61
2019-03-18T10:05:13.312Z,101347.64
2019-03-18T10:07:41.987Z,101358.40
2019-03-18T10:10:16.859Z,101347.00
2019-03-18T10:12:45.634Z,101348.81
2019-03-18T10:15:20.093Z,101358.02
2019-03-18T10:17:48.801Z,101362.26
2019-03-18T10:20:17.421Z,101362.84
2019-03-18T10:22:46.070Z,101372.75
2019-03-18T10:25:14.795Z,101372.75
2019-03-18T10:27:43.538Z,101372.95
2019-03-18T10:30:14.995Z,101380.70
2019-03-18T10:32:43.680Z,101382.43
2019-03-18T10:35:12.337Z,101383.66
2019-03-18T10:37:40.981Z,101377.22
2019-03-18T10:40:15.082Z,101374.68
2019-03-18T10:42:43.842Z,101388.76
2019-03-18T10:45:15.180Z,101390.08
2019-03-18T10:47:43.881Z,101388.03
2019-03-18T10:50:15.100Z,101391.75
2019-03-18T10:52:43.815Z,101382.53
2019-03-18T10:55:13.219Z,101397.39
2019-03-18T10:57:41.898Z,101398.63
2019-03-18T11:00:13.158Z,101394.81
2019-03-18T11:02:44.676Z,101386.59
2019-03-18T11:05:12.336Z,101403.70
2019-03-18T11:07:41.039Z,101383.22
2019-03-18T11:10:12.713Z,101390.53
2019-03-18T11:12:41.715Z,101420.41
2019-03-18T11:15:23.230Z,101460.38
2019-03-18T11:17:51.924Z,101457.70
2019-03-18T11:20:20.554Z,101454.52
2019-03-18T11:22:49.198Z,101448.97
2019-03-18T11:25:18.040Z,101448.27
2019-03-18T11:27:46.818Z,101441.11
2019-03-18T11:30:17.549Z,101443.77
2019-03-18T11:32:46.202Z,101439.95
2019-03-18T11:35:14.933Z,101440.80
2019-03-18T11:37:43.745Z,101443.44
2019-03-18T11:40:22.361Z,101425.94
2019-03-18T11:42:51.045Z,101440.13
2019-03-18T11:45:19.775Z,101437.16
2019-03-18T11:47:48.432Z,101437.86
2019-03-18T11:50:19.695Z,101437.11
2019-03-18T11:52:48.372Z,101434.08
2019-03-18T11:55:22.728Z,101453.69
2019-03-18T11:57:51.656Z,101441.86
2019-03-18T12:00:22.681Z,101442.31
2019-03-18T12:02:51.371Z,101439.04
2019-03-18T12:05:25.878Z,101430.77
2019-03-18T12:07:54.531Z,101432.69
2019-03-18T12:10:25.733Z,101453.89
2019-03-18T12:12:53.690Z,101442.14
2019-03-18T12:15:24.962Z,101445.83
2019-03-18T12:17:53.801Z,101451.41
2019-03-18T12:20:25.372Z,101438.09
2019-03-18T12:22:52.946Z,101450.27
2019-03-18T12:25:21.680Z,101451.28
2019-03-18T12:27:50.321Z,101443.19
2019-03-18T12:30:21.120Z,101449.33
2019-03-18T12:32:49.663Z,101454.59
2019-03-18T12:35:18.335Z,101443.41
2019-03-18T12:37:47.055Z,101443.78
2019-03-18T12:40:17.019Z,101437.41
2019-03-18T12:42:46.170Z,101439.88
2019-03-18T12:45:19.898Z,101459.09
2019-03-18T12:47:48.559Z,101442.55
2019-03-18T12:50:36.874Z,101463.99
2019-03-18T12:52:53.619Z,101458.22
2019-03-18T12:55:22.329Z,101460.08
2019-03-18T12:57:51.202Z,101475.13
2019-03-18T13:00:34.518Z,101472.23
2019-03-18T13:03:03.340Z,101474.42
2019-03-18T13:05:32.146Z,101479.20
2019-03-18T13:08:00.833Z,101468.82
2019-03-18T13:10:29.682Z,101493.94
2019-03-18T13:12:58.451Z,101504.10
2019-03-18T13:15:27.177Z,101500.58
2019-03-18T13:17:55.938Z,101486.07
2019-03-18T13:20:24.666Z,101501.30
2019-03-18T13:22:54.361Z,101505.38
2019-03-18T13:25:23.465Z,101510.34
2019-03-18T13:27:52.194Z,101508.12
2019-03-18T13:30:25.397Z,101516.17
2019-03-18T13:32:54.020Z,101518.39
2019-03-18T13:35:22.698Z,101505.34
2019-03-18T13:37:51.319Z,101513.74
2019-03-18T13:40:20.324Z,101512.56
2019-03-18T13:42:49.093Z,101499.35
2019-03-18T13:45:20.563Z,101499.60
2019-03-18T13:47:49.238Z,101502.91
2019-03-18T13:50:20.034Z,101529.48
2019-03-18T13:52:48.652Z,101513.42
2019-03-18T13:55:17.392Z,101529.14
2019-03-18T13:57:46.015Z,101539.48
2019-03-18T14:00:16.703Z,101554.76
2019-03-18T14:02:45.320Z,101567.58
2019-03-18T14:05:14.433Z,101569.91
2019-03-18T14:07:43.097Z,101573.17
2019-03-18T14:10:17.493Z,101563.53
2019-03-18T14:12:46.255Z,101582.94
2019-03-18T14:15:20.828Z,101584.22
2019-03-18T14:17:49.478Z,101588.99
2019-03-18T14:20:21.110Z,101591.52
2019-03-18T14:22:49.805Z,101591.66
2019-03-18T14:25:18.590Z,101594.67
2019-03-18T14:27:47.315Z,101595.59
2019-03-18T14:30:18.875Z,101594.77
2019-03-18T14:32:47.530Z,101596.48
2019-03-18T14:35:16.270Z,101589.61
2019-03-18T14:37:44.967Z,101594.62
2019-03-18T14:40:16.306Z,101593.58
2019-03-18T14:42:44.926Z,101591.83
2019-03-18T14:45:20.973Z,101590.41
2019-03-18T14:47:49.638Z,101590.84
2019-03-18T14:50:19.039Z,101590.02
2019-03-18T14:52:47.899Z,101593.17
2019-03-18T14:55:19.189Z,101599.03
2019-03-18T14:57:47.902Z,101612.45
2019-03-18T15:00:22.400Z,101612.47
2019-03-18T15:02:51.148Z,101605.09
2019-03-18T15:05:20.116Z,101611.09
2019-03-18T15:07:48.770Z,101612.61
2019-03-18T15:10:19.675Z,101603.05
2019-03-18T15:12:48.347Z,101602.80
2019-03-18T15:15:19.095Z,101612.30
2019-03-18T15:17:47.725Z,101620.11
2019-03-18T15:20:19.254Z,101625.66
2019-03-18T15:22:47.882Z,101626.12
2019-03-18T15:25:22.451Z,101626.84
2019-03-18T15:27:51.083Z,101623.59
2019-03-18T15:30:21.185Z,101606.06
2019-03-18T15:32:49.927Z,101641.18
2019-03-18T15:35:19.054Z,101624.64
2019-03-18T15:37:47.730Z,101632.92
2019-03-18T15:40:24.503Z,101636.34
2019-03-18T15:42:53.248Z,101636.80
2019-03-18T15:45:23.258Z,101604.31
2019-03-18T15:47:51.895Z,101646.34
2019-03-18T15:50:25.677Z,101656.30
2019-03-18T15:52:54.380Z,101662.23
2019-03-18T15:55:24.300Z,101662.23
2019-03-18T15:57:53.436Z,101657.19
2019-03-18T16:00:27.707Z,101661.61
2019-03-18T16:02:56.433Z,101661.50
2019-03-18T16:05:25.100Z,101669.91
2019-03-18T16:07:53.798Z,101683.75
2019-03-18T16:10:22.523Z,101675.75
2019-03-18T16:12:51.228Z,101680.91
2019-03-18T16:15:19.986Z,101689.59
2019-03-18T16:17:48.605Z,101697.60
2019-03-18T16:20:23.037Z,101695.50
2019-03-18T16:22:51.765Z,101702.34
2019-03-18T16:25:20.430Z,101707.74
2019-03-18T16:27:59.196Z,101708.66
2019-03-18T16:30:27.855Z,101708.63
2019-03-18T16:32:56.554Z,101709.21
2019-03-18T16:35:25.172Z,101708.53
2019-03-18T16:37:53.951Z,101718.58
2019-03-18T16:40:24.097Z,101720.39
2019-03-18T16:42:52.720Z,101720.06
2019-03-18T16:45:21.528Z,101730.12
2019-03-18T16:47:50.340Z,101727.72
2019-03-18T16:50:22.656Z,101727.09
2019-03-18T16:52:52.430Z,101737.84
2019-03-18T16:55:22.090Z,101737.00
2019-03-18T16:57:50.946Z,101738.78
2019-03-18T17:00:25.084Z,101747.98
2019-03-18T17:02:53.833Z,101751.89
2019-03-18T17:05:22.465Z,101756.15
2019-03-18T17:07:54.033Z,101761.35
2019-03-18T17:10:21.696Z,101759.19
2019-03-18T17:12:50.568Z,101771.55
2019-03-18T17:15:25.346Z,101779.02
2019-03-18T17:18:00.483Z,101781.72
2019-03-18T17:20:32.340Z,101792.91
2019-03-18T17:23:04.311Z,101800.97
2019-03-18T17:25:35.767Z,101796.84
2019-03-18T17:28:05.507Z,101800.57
2019-03-18T17:30:34.294Z,101755.46
2019-03-18T17:33:03.172Z,101803.64
2019-03-18T17:35:32.051Z,101817.69
2019-03-18T17:38:00.959Z,101813.33
2019-03-18T17:40:29.661Z,101821.19
2019-03-18T17:43:00.631Z,101828.59
2019-03-18T17:45:29.449Z,101835.62
2019-03-18T17:47:58.108Z,101840.56
2019-03-18T17:50:31.622Z,101836.80
2019-03-18T17:53:03.580Z,101841.63
2019-03-18T17:55:31.836Z,101846.35
2019-03-18T17:58:01.132Z,101843.63
2019-03-18T18:00:40.972Z,101846.39
2019-03-18T18:03:12.206Z,101848.86
2019-03-18T18:05:42.310Z,101856.98
2019-03-18T18:08:11.296Z,101864.98
2019-03-18T18:10:41.558Z,101872.48
2019-03-18T18:13:11.402Z,101877.05
2019-03-18T18:15:41.057Z,101876.21
2019-03-18T18:18:15.979Z,101884.66
2019-03-18T18:20:46.053Z,101879.35
2019-03-18T18:23:15.301Z,101880.52
2019-03-18T18:25:44.212Z,101883.03
2019-03-18T18:28:12.965Z,101883.75
2019-03-18T18:30:44.151Z,101889.27
2019-03-18T18:33:13.086Z,101898.71
2019-03-18T18:35:43.169Z,101903.44
2019-03-18T18:38:12.238Z,101905.38
2019-03-18T18:40:48.210Z,101910.46
2019-03-18T18:43:19.686Z,101915.91
2019-03-18T18:45:49.771Z,101913.71
2019-03-18T18:48:30.248Z,101925.44
2019-03-18T18:51:00.429Z,101922.77
2019-03-18T18:53:29.249Z,101923.14
2019-03-18T18:55:58.172Z,101927.08
2019-03-18T18:58:28.525Z,101930.14
2019-03-18T19:00:57.709Z,101935.88
2019-03-18T19:03:26.582Z,101941.78
2019-03-18T19:05:55.412Z,101944.66
2019-03-18T19:08:24.153Z,101948.67
2019-03-18T19:10:53.044Z,101958.42
2019-03-18T19:13:21.941Z,101950.13
2019-03-18T19:15:50.806Z,101959.17
2019-03-18T19:18:19.603Z,101954.95
2019-03-18T19:20:48.587Z,101967.70
2019-03-18T19:23:37.626Z,101968.28
2019-03-18T19:26:01.378Z,101971.50
2019-03-18T19:28:30.073Z,101972.58
2019-03-18T19:30:58.827Z,101978.01
2019-03-18T19:33:27.580Z,101982.36
2019-03-18T19:35:56.323Z,101987.20
2019-03-18T19:38:24.847Z,101992.59
2019-03-18T19:40:53.546Z,101996.28
2019-03-18T19:43:22.142Z,101996.61
2019-03-18T19:45:50.901Z,102004.67
2019-03-18T19:48:19.596Z,102003.64
2019-03-18T19:50:48.337Z,102004.48
2019-03-18T19:53:16.922Z,102006.62
2019-03-18T19:55:47.194Z,102008.19
2019-03-18T19:58:15.958Z,102016.08
2019-03-18T20:00:44.629Z,102017.41
2019-03-18T20:03:13.378Z,102012.95
2019-03-18T20:05:42.082Z,102009.97
2019-03-18T20:08:10.711Z,102013.81
2019-03-18T20:10:39.358Z,102010.28
2019-03-18T20:13:08.133Z,102018.39
2019-03-18T20:15:38.600Z,102019.89
2019-03-18T20:18:07.442Z,102028.64
2019-03-18T20:20:36.396Z,102036.10
2019-03-18T20:23:05.370Z,102028.96
2019-03-18T20:25:34.019Z,102028.22
2019-03-18T20:28:02.897Z,102029.43
2019-03-18T20:30:31.706Z,102026.80
2019-03-18T20:33:00.640Z,102028.30
2019-03-18T20:35:29.396Z,102039.50
2019-03-18T20:37:58.139Z,102043.02
2019-03-18T20:40:34.129Z,102043.22
2019-03-18T20:43:02.280Z,102053.57
2019-03-18T20:45:32.837Z,102052.44
2019-03-18T20:48:03.467Z,102057.63
2019-03-18T20:50:32.681Z,102058.14
2019-03-18T20:53:01.679Z,102067.83
2019-03-18T20:55:32.470Z,102075.86
2019-03-18T20:58:08.849Z,102075.36
2019-03-18T21:00:35.529Z,102072.69
2019-03-18T21:03:05.103Z,102071.86
2019-03-18T21:05:35.190Z,102085.91
2019-03-18T21:08:07.385Z,102079.71
2019-03-18T21:10:35.985Z,102083.02
2019-03-18T21:13:05.482Z,102080.50
2019-03-18T21:15:34.847Z,102085.20
2019-03-18T21:18:03.681Z,102079.18
2019-03-18T21:20:32.372Z,102080.50
2019-03-18T21:23:00.914Z,102082.83
2019-03-18T21:25:29.665Z,102091.81
2019-03-18T21:27:58.302Z,102088.79
2019-03-18T21:30:26.941Z,102090.83
2019-03-18T21:32:57.208Z,102095.00
2019-03-18T21:35:25.908Z,102102.19
2019-03-18T21:37:54.526Z,102101.37
2019-03-18T21:40:23.168Z,102106.67
2019-03-18T21:42:56.231Z,102101.52
2019-03-18T21:45:25.704Z,102106.02
2019-03-18T21:47:54.281Z,102114.70
2019-03-18T21:50:23.026Z,102116.92
2019-03-18T21:52:51.593Z,102114.06
2019-03-18T21:55:20.473Z,102122.23
2019-03-18T21:57:49.079Z,102121.42
2019-03-18T22:00:20.801Z,102119.26
2019-03-18T22:02:49.704Z,102122.97
2019-03-18T22:05:18.705Z,102125.95
2019-03-18T22:07:47.709Z,102125.95
2019-03-18T22:10:21.488Z,102127.77
2019-03-18T22:12:50.932Z,102131.30
2019-03-18T22:15:19.852Z,102125.64
2019-03-18T22:17:49.005Z,102131.14
2019-03-18T22:20:22.958Z,102130.16
2019-03-18T22:22:51.744Z,102134.86
2019-03-18T22:25:20.372Z,102145.73
2019-03-18T22:27:49.056Z,102140.20
2019-03-18T22:30:19.242Z,102145.70
2019-03-18T22:32:48.828Z,102141.03
2019-03-18T22:35:17.628Z,102141.55
2019-03-18T22:37:46.249Z,102141.39
2019-03-18T22:40:17.557Z,102145.55
2019-03-18T22:42:46.202Z,102153.56
2019-03-18T22:45:18.479Z,102151.77
2019-03-18T22:47:47.346Z,102147.42
2019-03-18T22:50:17.506Z,102149.44
2019-03-18T22:52:46.126Z,102153.45
2019-03-18T22:55:15.708Z,102165.81
2019-03-18T22:57:44.429Z,102164.63
2019-03-18T23:00:22.471Z,102165.81
2019-03-18T23:02:51.496Z,102160.97
2019-03-18T23:05:20.118Z,102163.33
2019-03-18T23:07:48.808Z,102160.16
2019-03-18T23:10:17.705Z,102162.83
2019-03-18T23:12:46.394Z,102174.02
2019-03-18T23:15:15.016Z,102179.02
2019-03-18T23:17:43.683Z,102171.34
2019-03-18T23:20:12.354Z,102176.16
2019-03-18T23:22:41.184Z,102173.64
2019-03-18T23:25:09.924Z,102182.53
2019-03-18T23:27:38.553Z,102180.84
2019-03-18T23:30:12.887Z,102178.02
2019-03-18T23:32:41.517Z,102173.52
2019-03-18T23:35:12.499Z,102172.86
2019-03-18T23:37:42.203Z,102172.02
2019-03-18T23:40:16.523Z,102171.52
2019-03-18T23:42:46.048Z,102175.19
2019-03-18T23:45:22.576Z,102177.55
2019-03-18T23:47:53.110Z,102184.23
2019-03-18T23:50:22.743Z,102188.05
2019-03-18T23:52:52.276Z,102183.88
2019-03-18T23:55:21.888Z,102183.72
2019-03-18T23:57:51.382Z,102183.22
